Aérodrome :
LOGIN :

S'inscrire | Disclaimer

   EN    FR    IT 

 










Légende :    VFR   VFR Marginal   IFR   IFR Intensif   IFR Très Intensif
Visi : 
Plafond : 
>= 8 km
>= 3000ft
5 à 8 km
1000 à 3000 ft
1500m à 5 km
500 à 1000 ft
800 à 1500m
200 à 500 ft
< 800m
< 200 ft
Symboles :   Orages  Brouillard  Fortes neiges  Fortes précipitations  Vent > 20 kt
SIGMETs :   Divers  Orages  Givrage  Turbulence  Onde Orograph.  Cendres Volcan.







- Altitude de l'aérodrome : 3 ft
- Code IATA : DHR


EHKD - Den Helder De Kooy

DERNIER METAR :
  • 191025Z AUTO 32015G25KT 280V010 9999 ////// 09/04 Q1016 REDZ BLU

METARs EXPIRÉS :
  • 190955Z AUTO 31015G33KT 280V350 9999 -RA ////// 08/04 Q1016 BLU
  • 190933Z AUTO 32015KT 270V020 9999 -RA FEW018/// SCT020CB 09/04 Q1016 BLU 30013G23KT 9999 FEW020 TEMPO 31020G32KT 4000 SHRA SCT020CB BKN030
  • 190925Z AUTO 31015G25KT 270V350 9999 ////// 09/04 Q1015 BLU 30013G23KT 9999 FEW020 TEMPO 31020G32KT 4000 SHRA SCT020CB BKN030
  • 190855Z AUTO 32018G35KT 290V360 9999 RA FEW020CB SCT030 07/04 Q1015 BLU 30013G23KT 9999 FEW020 TEMPO 31020G32KT 4000 SHRA SCT020CB BKN030
  • 190835Z AUTO 30016G26KT 270V350 9999 SCT030 08/04 Q1015 BLU 30013G23KT 9999 FEW020 TEMPO 31020G32KT SCT020CB BKN030
  • 190825Z AUTO 31017G27KT 280V360 9999 ////// 08/04 Q1015 BLU 30013G23KT 9999 FEW020 TEMPO 31020G32KT SCT020CB BKN030
  • 190755Z AUTO 31019G29KT 270V360 9999 FEW020CB //////CB 08/03 Q1015 BLU 30013G23KT 9999 FEW020 TEMPO 31020G32KT SCT020CB BKN030
  • 190732Z AUTO 31019KT 270V350 9999 FEW020CB SCT040 09/03 Q1014 BLU 30013G23KT 9999 FEW020 TEMPO 31020G32KT SCT020CB BKN030

TAF TAF EHKD
Valide du 19 à 10h jusqu'au 19 à 22h UTC


190928Z 1910/1922 31015G25KT 9999 SCT030
TEMPO 1910/1920 32022G32KT 4000 SHRA FEW018 SCT020CB BKN030
BECMG 1918/1921 29015KT
Pas de NOTAMs connus pour ce terrain.



MET'MAP, la Météo Aéronautique d'un coup d'oeil ! - Copyright ORBIFLY Décembre 2007 - Disclaimer

ORBIFLY MET'MAP TEAM :

Programmation & Développement : Alexandra Zaïnal
Conception & Développement : Baudouin d'Aumeries
Co-Programmation & Développement : Marc-Olivier Méhu
Soutien technique & logistique : Manuel Goepfert

Contact : metmap@orbifly.com




SOURCES & CREDITS :

   NOAA